Time;durP1;ratioP1;P1;durP2;ratioP2;P2;SDS_P1;SDS_P2;PMS_P1;PMS_P2;Temp;Humidity;BMP_temperature;BMP_pressure;BME280_temperature;BME280_humidity;BME280_pressure;Samples;Min_cycle;Max_cycle;Signal;HPM_P1;HPM_P2
2023/11/04 00:01:33;;;;;;;;;;;;;;;;;;6151775;23;19944;-89
2023/11/04 00:04:04;;;;;;;;;;;;;;;;;;6150339;23;19908;-88
2023/11/04 00:06:56;;;;;;;0.47;0.30;;;;;;;;;;6151029;23;19975;-88
2023/11/04 00:09:30;;;;;;;;;;;;;;;;;;6127119;23;20093;-90
2023/11/04 00:12:19;;;;;;;0.85;0.10;;;;;;;;;;6150428;23;20332;-88
2023/11/04 00:15:01;;;;;;;;;;;;;;;;;;6148851;23;20056;-88
2023/11/04 00:17:41;;;;;;;7.95;0.65;;;;;;;;;;6126398;23;19960;-88
2023/11/04 00:20:20;;;;;;;;;;;;;;;;;;;;;
2023/11/04 00:22:44;;;;;;;1.00;0.30;;;;;;;;;;6242765;23;20385;-90
2023/11/04 00:25:24;;;;;;;0.50;0.30;;;;;;;;;;6217859;23;20387;-90
2023/11/04 00:28:07;;;;;;;0.30;0.30;;;;;;;;;;6219551;23;20043;-88
2023/11/04 00:33:52;;;;;;;0.40;0.08;;;;;;;;;;6247057;23;20019;-88
2023/11/04 00:36:35;;;;;;;0.80;0.17;;;;;;;;;;6211495;23;20032;-90
2023/11/04 00:39:12;;;;;;;0.10;0.00;;;;;;;;;;6187660;23;20013;-88
2023/11/04 00:41:59;;;;;;;1.13;0.17;;;;;;;;;;6175755;23;20012;-88
2023/11/04 00:44:30;;;;;;;3.45;0.28;;;;;;;;;;6212442;23;20431;-90
2023/11/04 00:47:16;;;;;;;;;;;;;;;;;;;;;
2023/11/04 00:50:04;;;;;;;;;;;;;;;;;;;;;
2023/11/04 00:52:36;;;;;;;0.52;0.10;;;;;;;;;;6214465;23;20083;-88
2023/11/04 00:55:20;;;;;;;;;;;;;;;;;;;;;
2023/11/04 01:01:24;;;;;;;;;;;;;;;;;;;;;
2023/11/04 01:12:43;;;;;;;;;;;;;;;;;;6241720;23;20026;-88
2023/11/04 01:21:57;;;;;;;;;;;;;;;;;;6242948;23;20031;-90
2023/11/04 01:24:43;;;;;;;0.88;0.10;;;;;;;;;;6151532;23;20276;-90
2023/11/04 01:27:45;;;;;;;;;;;;;;;;;;;;;
2023/11/04 01:33:26;;;;;;;0.40;0.20;;;;;;;;;;6151426;23;20120;-87
2023/11/04 01:45:13;;;;;;;0.20;0.10;;;;;;;;;;6229776;23;20031;-89
2023/11/04 01:54:16;;;;;;;;;;;;;;;;;;;;;
2023/11/04 01:56:50;;;;;;;0.20;0.20;;;;;;;;;;6245591;23;20075;-90
2023/11/04 01:59:16;;;;;;;0.20;0.10;;;;;;;;;;6218676;23;20016;-90
2023/11/04 02:01:45;;;;;;;0.20;0.13;;;;;;;;;;6219056;23;20008;-90
2023/11/04 02:04:49;;;;;;;0.13;0.10;;;;;;;;;;6217554;23;20089;-90
2023/11/04 02:10:14;;;;;;;0.20;0.10;;;;;;;;;;6243334;23;20020;-90
2023/11/04 02:13:21;;;;;;;;;;;;;;;;;;;;;
2023/11/04 02:15:58;;;;;;;;;;;;;;;;;;6245434;23;20091;-87
2023/11/04 02:24:46;;;;;;;0.25;0.10;;;;;;;;;;6155483;23;20092;-90
2023/11/04 02:35:15;;;;;;;0.00;0.00;;;;;;;;;;6244515;23;20047;-87
2023/11/04 02:38:26;;;;;;;0.60;0.25;;;;;;;;;;6221112;23;20008;-87
2023/11/04 02:44:37;;;;;;;0.52;0.00;;;;;;;;;;6154671;23;20453;-87
2023/11/04 02:50:28;;;;;;;0.73;0.30;;;;;;;;;;6067849;23;20024;-89
2023/11/04 02:53:14;;;;;;;;;;;;;;;;;;;;;
2023/11/04 02:56:12;;;;;;;;;;;;;;;;;;;;;
2023/11/04 02:58:56;;;;;;;0.38;0.03;;;;;;;;;;6205577;22;20095;-87
2023/11/04 03:01:36;;;;;;;0.20;0.10;;;;;;;;;;6218449;23;20019;-86
2023/11/04 03:04:08;;;;;;;0.47;0.10;;;;;;;;;;6215747;23;20015;-90
2023/11/04 03:07:28;;;;;;;0.85;0.43;;;;;;;;;;6215215;23;20020;-88
2023/11/04 03:10:05;;;;;;;;;;;;;;;;;;;;;
2023/11/04 03:12:42;;;;;;;;;;;;;;;;;;;;;
2023/11/04 03:27:17;;;;;;;0.13;0.05;;;;;;;;;;6210461;23;19919;-90
2023/11/04 03:29:52;;;;;;;0.05;0.00;;;;;;;;;;6224151;23;20336;-90
2023/11/04 03:32:23;;;;;;;0.10;0.10;;;;;;;;;;6217188;23;20096;-91
2023/11/04 03:34:55;;;;;;;0.10;0.10;;;;;;;;;;6215507;23;20763;-90
2023/11/04 03:40:44;;;;;;;0.63;0.22;;;;;;;;;;6243786;23;20015;-90
2023/11/04 03:43:31;;;;;;;0.40;0.20;;;;;;;;;;6216503;23;20112;-90
2023/11/04 03:46:09;;;;;;;0.65;0.17;;;;;;;;;;6180174;23;20044;-90
2023/11/04 03:48:46;;;;;;;0.38;0.03;;;;;;;;;;6179762;23;20107;-91
2023/11/04 03:51:40;;;;;;;0.82;0.15;;;;;;;;;;6177123;23;20036;-91
2023/11/04 03:54:36;;;;;;;2.17;0.10;;;;;;;;;;6225971;23;20111;-91
2023/11/04 04:03:10;;;;;;;0.32;0.10;;;;;;;;;;6131468;23;20030;-90
2023/11/04 04:06:00;;;;;;;0.22;0.15;;;;;;;;;;6090544;23;20021;-87
2023/11/04 04:08:58;;;;;;;0.00;0.00;;;;;;;;;;6052362;23;20049;-88
2023/11/04 04:11:27;;;;;;;0.17;0.17;;;;;;;;;;6121588;23;20017;-87
2023/11/04 04:14:06;;;;;;;0.55;0.25;;;;;;;;;;6178760;23;20021;-88
2023/11/04 04:16:48;;;;;;;0.28;0.10;;;;;;;;;;6179162;23;20068;-87
2023/11/04 04:19:50;;;;;;;;;;;;;;;;;;;;;
2023/11/04 04:31:56;;;;;;;0.40;0.28;;;;;;;;;;6111423;23;20036;-90
2023/11/04 04:51:40;;;;;;;0.85;0.20;;;;;;;;;;6242439;23;20066;-86
2023/11/04 04:54:20;;;;;;;0.25;0.17;;;;;;;;;;6216995;23;20086;-87
2023/11/04 04:57:04;;;;;;;0.20;0.10;;;;;;;;;;6215419;23;20087;-87
2023/11/04 05:00:18;;;;;;;0.38;0.00;;;;;;;;;;6214752;23;20016;-87
2023/11/04 05:09:00;;;;;;;0.30;0.00;;;;;;;;;;6179477;23;20023;-86
2023/11/04 05:11:35;;;;;;;0.00;0.00;;;;;;;;;;6153899;23;20100;-84
2023/11/04 05:17:25;;;;;;;0.20;0.00;;;;;;;;;;6172822;23;20005;-86
2023/11/04 05:20:11;;;;;;;0.00;0.00;;;;;;;;;;6151960;23;20021;-86
2023/11/04 05:25:54;;;;;;;0.00;0.00;;;;;;;;;;6060069;23;20042;-85
2023/11/04 05:28:49;;;;;;;0.13;0.00;;;;;;;;;;6085352;23;20027;-89
2023/11/04 05:42:43;;;;;;;0.43;0.20;;;;;;;;;;6194965;23;20009;-88
2023/11/04 05:45:15;;;;;;;0.08;0.00;;;;;;;;;;6183512;23;20008;-88
2023/11/04 05:48:02;;;;;;;0.15;0.10;;;;;;;;;;6178810;23;20099;-88
2023/11/04 05:50:28;;;;;;;0.35;0.00;;;;;;;;;;6178581;23;20025;-88
2023/11/04 05:52:59;;;;;;;0.05;0.00;;;;;;;;;;6179805;23;20016;-88
2023/11/04 05:55:28;;;;;;;0.20;0.20;;;;;;;;;;6177540;23;20127;-89
2023/11/04 05:57:58;;;;;;;0.20;0.10;;;;;;;;;;6151281;23;20017;-89
2023/11/04 06:00:42;;;;;;;;;;;;;;;;;;;;;
2023/11/04 06:03:36;;;;;;;0.00;0.00;;;;;;;;;;6178247;23;20127;-89
2023/11/04 06:06:54;;;;;;;3.97;0.13;;;;;;;;;;6152206;23;20013;-88
2023/11/04 06:09:32;;;;;;;0.00;0.00;;;;;;;;;;6170446;23;20012;-89
2023/11/04 06:12:23;;;;;;;0.03;0.03;;;;;;;;;;6153424;23;20020;-89
2023/11/04 06:15:13;;;;;;;0.22;0.03;;;;;;;;;;6153215;23;20441;-87
2023/11/04 06:18:11;;;;;;;0.08;0.05;;;;;;;;;;6154499;23;20135;-89
2023/11/04 06:21:00;;;;;;;0.10;0.00;;;;;;;;;;6153727;23;20017;-89
2023/11/04 06:23:53;;;;;;;0.68;0.32;;;;;;;;;;6066081;23;20022;-89
2023/11/04 06:26:22;;;;;;;0.45;0.10;;;;;;;;;;6092526;23;20045;-93
2023/11/04 06:31:31;;;;;;;0.20;0.10;;;;;;;;;;6152313;23;20032;-91
2023/11/04 06:37:22;;;;;;;0.20;0.00;;;;;;;;;;6134417;23;20053;-90
2023/11/04 06:39:50;;;;;;;0.30;0.20;;;;;;;;;;6125383;23;20009;-89
2023/11/04 06:42:21;;;;;;;0.55;0.40;;;;;;;;;;6125337;23;20019;-90
2023/11/04 06:44:49;;;;;;;0.38;0.10;;;;;;;;;;6123356;23;20017;-86
2023/11/04 06:47:32;;;;;;;0.90;0.30;;;;;;;;;;6127669;23;20024;-91
2023/11/04 06:49:59;;;;;;;0.00;0.00;;;;;;;;;;6125066;23;20033;-91
2023/11/04 06:52:25;;;;;;;1.45;0.43;;;;;;;;;;6127092;23;20013;-90
2023/11/04 06:54:51;;;;;;;0.00;0.00;;;;;;;;;;6125747;23;20016;-88
2023/11/04 06:57:17;;;;;;;0.80;0.10;;;;;;;;;;6125859;23;20014;-90
2023/11/04 06:59:44;;;;;;;0.10;0.00;;;;;;;;;;6126218;23;20096;-89
2023/11/04 07:02:13;;;;;;;0.30;0.10;;;;;;;;;;6125603;23;20068;-88
2023/11/04 07:04:40;;;;;;;0.20;0.17;;;;;;;;;;6127759;23;20013;-91
2023/11/04 07:07:06;;;;;;;0.85;0.10;;;;;;;;;;6126599;23;20425;-89
2023/11/04 07:09:34;;;;;;;0.25;0.15;;;;;;;;;;6126898;23;20017;-89
2023/11/04 07:12:00;;;;;;;0.47;0.35;;;;;;;;;;6127613;23;20453;-88
2023/11/04 07:14:26;;;;;;;0.17;0.13;;;;;;;;;;6126837;23;20456;-91
2023/11/04 07:16:55;;;;;;;0.32;0.17;;;;;;;;;;6128119;23;20009;-89
2023/11/04 07:19:21;;;;;;;1.98;0.40;;;;;;;;;;6126982;23;20036;-88
2023/11/04 07:21:47;;;;;;;0.63;0.17;;;;;;;;;;6127722;23;20052;-90
2023/11/04 07:24:13;;;;;;;0.17;0.10;;;;;;;;;;6127559;23;20009;-89
2023/11/04 07:26:39;;;;;;;0.35;0.30;;;;;;;;;;6127514;23;20009;-89
2023/11/04 07:29:06;;;;;;;0.15;0.10;;;;;;;;;;6129127;23;20005;-89
2023/11/04 07:31:35;;;;;;;0.00;0.00;;;;;;;;;;6156636;23;20032;-90
2023/11/04 07:34:01;;;;;;;0.13;0.00;;;;;;;;;;6156068;23;20005;-87
2023/11/04 07:36:27;;;;;;;2.28;0.10;;;;;;;;;;6181949;23;20016;-87
2023/11/04 07:38:53;;;;;;;0.20;0.10;;;;;;;;;;6155905;23;20779;-88
2023/11/04 07:41:19;;;;;;;0.10;0.00;;;;;;;;;;6156015;23;20048;-88
2023/11/04 07:43:45;;;;;;;0.20;0.10;;;;;;;;;;6155425;23;20024;-88
2023/11/04 07:46:12;;;;;;;0.38;0.10;;;;;;;;;;6156579;23;20021;-87
2023/11/04 07:48:38;;;;;;;0.10;0.10;;;;;;;;;;6156756;23;20013;-89
2023/11/04 07:51:05;;;;;;;20.33;0.30;;;;;;;;;;6156409;23;20064;-87
2023/11/04 07:53:31;;;;;;;0.93;0.20;;;;;;;;;;6153013;23;20302;-85
2023/11/04 07:55:57;;;;;;;0.20;0.10;;;;;;;;;;6155903;23;20100;-87
2023/11/04 07:58:24;;;;;;;0.20;0.20;;;;;;;;;;6153479;23;20009;-88
2023/11/04 08:00:50;;;;;;;0.73;0.20;;;;;;;;;;6155479;23;20248;-90
2023/11/04 08:03:16;;;;;;;5.47;0.80;;;;;;;;;;6155557;23;20032;-90
2023/11/04 08:05:46;;;;;;;4.05;0.85;;;;;;;;;;6156417;23;20024;-88
2023/11/04 08:08:13;;;;;;;2.65;1.02;;;;;;;;;;6156645;23;20036;-89
2023/11/04 08:10:45;;;;;;;6.28;1.08;;;;;;;;;;6155732;23;20008;-89
2023/11/04 08:13:14;;;;;;;0.63;0.22;;;;;;;;;;6155723;23;20095;-89
2023/11/04 08:15:40;;;;;;;0.43;0.00;;;;;;;;;;6153279;23;20100;-89
2023/11/04 08:18:09;;;;;;;5.18;0.40;;;;;;;;;;6155749;23;20020;-88
2023/11/04 08:20:37;;;;;;;1.35;0.80;;;;;;;;;;6155552;23;20019;-89
2023/11/04 08:23:03;;;;;;;1.33;0.20;;;;;;;;;;6156116;23;20024;-89
2023/11/04 08:25:29;;;;;;;0.90;0.25;;;;;;;;;;6155129;23;20009;-89
2023/11/04 08:27:58;;;;;;;1.10;0.30;;;;;;;;;;6155862;23;20425;-89
2023/11/04 08:30:24;;;;;;;0.55;0.30;;;;;;;;;;6155013;23;20027;-89
2023/11/04 08:32:50;;;;;;;0.20;0.20;;;;;;;;;;6155924;23;20032;-89
2023/11/04 08:35:16;;;;;;;1.10;0.20;;;;;;;;;;6155125;23;20009;-89
2023/11/04 08:37:42;;;;;;;0.82;0.50;;;;;;;;;;6155587;23;20009;-89
2023/11/04 08:40:09;;;;;;;0.00;0.00;;;;;;;;;;6155793;23;20079;-89
2023/11/04 08:42:36;;;;;;;0.68;0.30;;;;;;;;;;6155099;23;20786;-88
2023/11/04 08:45:02;;;;;;;0.98;0.40;;;;;;;;;;6155871;23;20424;-89
2023/11/04 08:47:28;;;;;;;0.80;0.40;;;;;;;;;;6154933;23;20702;-89
2023/11/04 08:49:54;;;;;;;0.55;0.38;;;;;;;;;;6155575;23;20009;-89
2023/11/04 08:52:20;;;;;;;0.20;0.20;;;;;;;;;;6155187;23;20012;-89
2023/11/04 08:54:46;;;;;;;0.80;0.30;;;;;;;;;;6156275;23;20009;-89
2023/11/04 08:57:12;;;;;;;7.78;0.52;;;;;;;;;;6154795;23;20525;-89
2023/11/04 08:59:38;;;;;;;3.72;0.57;;;;;;;;;;6156219;23;20021;-89
2023/11/04 09:02:05;;;;;;;0.20;0.10;;;;;;;;;;6155494;23;20013;-89
2023/11/04 09:04:31;;;;;;;0.00;0.00;;;;;;;;;;6155610;23;20091;-88
2023/11/04 09:06:57;;;;;;;0.17;0.00;;;;;;;;;;6155007;23;20020;-87
2023/11/04 09:09:23;;;;;;;0.10;0.10;;;;;;;;;;6155166;23;20024;-88
2023/11/04 09:11:50;;;;;;;0.22;0.10;;;;;;;;;;6155219;23;20332;-87
2023/11/04 09:14:16;;;;;;;0.00;0.00;;;;;;;;;;6155021;23;20104;-88
2023/11/04 09:16:42;;;;;;;0.22;0.03;;;;;;;;;;6155841;23;20009;-88
2023/11/04 09:19:08;;;;;;;0.10;0.10;;;;;;;;;;6155013;23;20043;-87
2023/11/04 09:21:37;;;;;;;0.75;0.30;;;;;;;;;;6155771;23;20009;-88
2023/11/04 09:24:08;;;;;;;0.00;0.00;;;;;;;;;;6154683;23;20437;-88
2023/11/04 09:26:36;;;;;;;0.00;0.00;;;;;;;;;;6154968;23;20004;-87
2023/11/04 09:29:08;;;;;;;0.40;0.05;;;;;;;;;;6154143;23;20103;-88
2023/11/04 09:31:36;;;;;;;0.00;0.00;;;;;;;;;;6155552;23;20025;-88
2023/11/04 09:34:10;;;;;;;0.00;0.00;;;;;;;;;;6154915;23;20013;-87
2023/11/04 09:36:54;;;;;;;0.00;0.00;;;;;;;;;;6119267;23;20022;-88
2023/11/04 09:39:48;;;;;;;0.30;0.13;;;;;;;;;;6094272;23;20033;-87
2023/11/04 09:42:15;;;;;;;0.20;0.20;;;;;;;;;;6094223;23;20450;-87
2023/11/04 09:44:41;;;;;;;0.50;0.15;;;;;;;;;;6094310;23;20010;-88
2023/11/04 09:47:07;;;;;;;4.93;1.95;;;;;;;;;;6094730;23;20006;-88
2023/11/04 09:49:41;;;;;;;6.50;2.88;;;;;;;;;;6093547;23;20378;-88
2023/11/04 09:52:10;;;;;;;2.05;1.02;;;;;;;;;;6094784;23;20041;-88
2023/11/04 09:54:50;;;;;;;4.03;1.45;;;;;;;;;;6094014;23;20398;-87
2023/11/04 09:57:23;;;;;;;4.68;0.80;;;;;;;;;;6094835;23;20009;-87
2023/11/04 09:59:54;;;;;;;0.00;0.00;;;;;;;;;;6093611;23;20022;-87
2023/11/04 10:02:20;;;;;;;0.10;0.10;;;;;;;;;;6151862;23;20083;-88
2023/11/04 10:04:46;;;;;;;0.00;0.00;;;;;;;;;;6151248;23;20447;-87
2023/11/04 10:07:38;;;;;;;;;;;;;;;;;;;;;
2023/11/04 11:10:50;;;;;;;0.00;0.00;;;;;;;;;;6011710;23;20044;-88
2023/11/04 11:13:32;;;;;;;0.10;0.05;;;;;;;;;;6155143;23;20605;-89
2023/11/04 11:24:09;;;;;;;0.00;0.00;;;;;;;;;;6184834;22;20029;-87
2023/11/04 11:29:45;;;;;;;0.00;0.00;;;;;;;;;;6186229;23;20021;-86
2023/11/04 11:32:11;;;;;;;;;;;;;;;;;;6157966;23;20009;-89
2023/11/04 11:34:48;;;;;;;0.00;0.00;;;;;;;;;;6180310;23;19998;-88
2023/11/04 11:37:17;;;;;;;0.00;0.00;;;;;;;;;;6155335;23;20048;-89
2023/11/04 11:39:45;;;;;;;0.00;0.00;;;;;;;;;;6155621;23;20027;-88
2023/11/04 11:42:17;;;;;;;0.00;0.00;;;;;;;;;;6155685;23;20416;-89
2023/11/04 11:44:48;;;;;;;0.00;0.00;;;;;;;;;;6156181;23;20079;-88
2023/11/04 11:47:18;;;;;;;0.00;0.00;;;;;;;;;;6156147;23;20259;-89
2023/11/04 11:49:46;;;;;;;1.38;0.63;;;;;;;;;;6155955;23;20021;-88
2023/11/04 11:52:22;;;;;;;0.17;0.17;;;;;;;;;;6155652;23;20043;-91
2023/11/04 11:54:49;;;;;;;0.00;0.00;;;;;;;;;;6156684;23;20017;-89
2023/11/04 11:57:15;;;;;;;0.15;0.00;;;;;;;;;;6157039;23;20009;-90
2023/11/04 11:59:46;;;;;;;0.00;0.00;;;;;;;;;;6157142;23;20025;-86
2023/11/04 12:02:33;;;;;;;0.00;0.00;;;;;;;;;;6159355;23;20021;-90
2023/11/04 12:04:59;;;;;;;0.00;0.00;;;;;;;;;;6156610;23;20091;-88
2023/11/04 12:07:36;;;;;;;0.00;0.00;;;;;;;;;;6157378;23;20016;-89
2023/11/04 12:10:02;;;;;;;0.00;0.00;;;;;;;;;;6156969;23;20020;-89
2023/11/04 12:12:28;;;;;;;0.35;0.10;;;;;;;;;;6157373;23;20032;-88
2023/11/04 12:15:01;;;;;;;0.00;0.00;;;;;;;;;;6157962;23;20059;-89
2023/11/04 12:17:29;;;;;;;0.00;0.00;;;;;;;;;;6160427;23;20005;-88
2023/11/04 12:19:58;;;;;;;0.00;0.00;;;;;;;;;;6158431;23;20005;-90
2023/11/04 12:22:30;;;;;;;0.00;0.00;;;;;;;;;;6158562;23;20337;-90
2023/11/04 12:24:56;;;;;;;0.00;0.00;;;;;;;;;;6186911;23;20027;-90
2023/11/04 12:27:30;;;;;;;0.00;0.00;;;;;;;;;;6187083;23;20004;-90
2023/11/04 12:46:15;;;;;;;0.00;0.00;;;;;;;;;;6183109;23;20039;-90
2023/11/04 12:48:47;;;;;;;0.00;0.00;;;;;;;;;;6168307;23;20425;-90
2023/11/04 12:54:29;;;;;;;;;;;;;;;;;;6153025;23;20032;-90
2023/11/04 12:57:03;;;;;;;1.45;0.40;;;;;;;;;;6152227;23;20240;-91
2023/11/04 12:59:30;;;;;;;0.10;0.08;;;;;;;;;;6128146;23;20009;-89
2023/11/04 13:01:56;;;;;;;0.00;0.00;;;;;;;;;;6128681;23;20037;-83
2023/11/04 13:04:22;;;;;;;2.83;0.10;;;;;;;;;;6128783;23;20006;-86
2023/11/04 13:06:51;;;;;;;0.00;0.00;;;;;;;;;;6126510;23;20009;-89
2023/11/04 13:09:33;;;;;;;;;;;;;;;;;;;;;
2023/11/04 13:12:08;;;;;;;0.15;0.08;;;;;;;;;;6136907;23;20505;-90
2023/11/04 13:14:34;;;;;;;0.10;0.00;;;;;;;;;;6127745;23;20013;-89
2023/11/04 13:17:03;;;;;;;0.00;0.00;;;;;;;;;;6185344;23;20155;-89
2023/11/04 13:19:32;;;;;;;0.47;0.25;;;;;;;;;;6185118;23;20084;-89
2023/11/04 13:28:06;;;;;;;0.40;0.25;;;;;;;;;;6125384;23;20012;-89
2023/11/04 13:30:33;;;;;;;0.20;0.15;;;;;;;;;;6187481;23;20013;-90
2023/11/04 13:33:02;;;;;;;0.30;0.20;;;;;;;;;;6186755;23;20012;-90
2023/11/04 13:35:28;;;;;;;5.65;2.10;;;;;;;;;;6185640;23;20009;-86
2023/11/04 13:37:55;;;;;;;1.40;0.70;;;;;;;;;;6185175;23;20005;-86
2023/11/04 13:40:21;;;;;;;4.15;0.82;;;;;;;;;;6185710;23;20021;-88
2023/11/04 13:43:08;;;;;;;1.42;0.70;;;;;;;;;;6186177;23;20421;-93
2023/11/04 13:48:52;;;;;;;0.95;0.30;;;;;;;;;;6183278;23;20037;-91
2023/11/04 13:51:28;;;;;;;0.30;0.10;;;;;;;;;;6155884;23;20020;-91
2023/11/04 14:05:24;;;;;;;0.10;0.00;;;;;;;;;;6272081;22;20016;-90
2023/11/04 14:07:52;;;;;;;0.35;0.10;;;;;;;;;;6180315;23;20021;-91
2023/11/04 14:10:21;;;;;;;0.22;0.13;;;;;;;;;;6182495;23;20016;-90
2023/11/04 14:25:25;;;;;;;0.30;0.03;;;;;;;;;;5984316;23;20036;-91
2023/11/04 14:27:51;;;;;;;0.00;0.00;;;;;;;;;;6118146;23;20063;-89
2023/11/04 14:30:17;;;;;;;0.45;0.03;;;;;;;;;;6181634;23;20449;-90
2023/11/04 14:32:43;;;;;;;0.00;0.00;;;;;;;;;;6211553;23;20470;-88
2023/11/04 14:43:39;;;;;;;0.98;0.43;;;;;;;;;;6220813;22;20503;-87
2023/11/04 14:46:12;;;;;;;0.52;0.28;;;;;;;;;;6191510;23;20059;-89
2023/11/04 14:48:41;;;;;;;0.73;0.05;;;;;;;;;;6191420;23;20009;-89
2023/11/04 14:51:12;;;;;;;4.40;0.73;;;;;;;;;;6192148;23;20012;-91
2023/11/04 14:53:39;;;;;;;0.65;0.35;;;;;;;;;;6192358;23;20027;-92
2023/11/04 14:59:32;;;;;;;1.00;0.57;;;;;;;;;;6099442;23;20015;-89
2023/11/04 15:01:58;;;;;;;0.30;0.10;;;;;;;;;;6073480;23;20434;-88
2023/11/04 15:04:30;;;;;;;0.15;0.10;;;;;;;;;;6170193;23;20020;-91
2023/11/04 15:06:56;;;;;;;0.20;0.10;;;;;;;;;;6192296;23;20008;-90
2023/11/04 15:09:24;;;;;;;0.55;0.40;;;;;;;;;;6190904;23;20051;-89
2023/11/04 15:11:51;;;;;;;1.40;0.38;;;;;;;;;;6190374;23;20005;-87
2023/11/04 15:14:27;;;;;;;2.45;1.02;;;;;;;;;;6190384;23;20016;-87
2023/11/04 15:16:54;;;;;;;0.10;0.10;;;;;;;;;;6190183;23;20020;-89
2023/11/04 15:19:20;;;;;;;1.80;0.45;;;;;;;;;;6191981;23;20143;-86
2023/11/04 15:21:46;;;;;;;0.20;0.20;;;;;;;;;;6192593;23;20036;-86
2023/11/04 15:24:12;;;;;;;0.00;0.00;;;;;;;;;;6191815;23;20027;-87
2023/11/04 15:26:38;;;;;;;0.35;0.20;;;;;;;;;;6191116;23;20004;-89
2023/11/04 15:29:04;;;;;;;1.83;0.20;;;;;;;;;;6189509;23;20021;-89
2023/11/04 15:31:30;;;;;;;0.50;0.10;;;;;;;;;;6188822;23;20013;-88
2023/11/04 15:33:56;;;;;;;0.08;0.08;;;;;;;;;;6190010;23;20047;-89
2023/11/04 15:36:22;;;;;;;0.25;0.10;;;;;;;;;;6189466;23;20416;-88
2023/11/04 15:38:49;;;;;;;0.40;0.40;;;;;;;;;;6187200;23;20044;-86
2023/11/04 15:41:15;;;;;;;2.28;0.40;;;;;;;;;;6185911;23;20420;-86
2023/11/04 15:43:41;;;;;;;0.88;0.43;;;;;;;;;;6186024;23;20020;-88
2023/11/04 15:46:07;;;;;;;0.00;0.00;;;;;;;;;;6185332;23;20044;-88
2023/11/04 15:48:33;;;;;;;1.27;0.30;;;;;;;;;;6185806;23;20016;-87
2023/11/04 15:50:59;;;;;;;0.98;0.52;;;;;;;;;;6185687;23;20012;-86
2023/11/04 15:53:25;;;;;;;0.20;0.10;;;;;;;;;;6186292;23;20024;-86
2023/11/04 15:55:54;;;;;;;0.65;0.20;;;;;;;;;;6186576;23;20005;-87
2023/11/04 15:58:20;;;;;;;1.00;0.20;;;;;;;;;;6186497;23;20008;-88
2023/11/04 16:00:46;;;;;;;0.15;0.13;;;;;;;;;;6187193;23;20352;-88
2023/11/04 16:03:12;;;;;;;0.90;0.25;;;;;;;;;;6188757;23;20017;-86
2023/11/04 16:05:47;;;;;;;0.03;0.00;;;;;;;;;;6188485;23;20016;-85
2023/11/04 16:08:14;;;;;;;0.10;0.10;;;;;;;;;;6189818;23;20084;-83
2023/11/04 16:10:40;;;;;;;0.80;0.28;;;;;;;;;;6189765;23;20016;-85
2023/11/04 16:13:06;;;;;;;1.85;0.30;;;;;;;;;;6191265;23;20009;-84
2023/11/04 16:15:33;;;;;;;0.28;0.10;;;;;;;;;;6190290;23;20012;-84
2023/11/04 16:17:59;;;;;;;0.47;0.38;;;;;;;;;;6190195;23;20047;-85
2023/11/04 16:20:25;;;;;;;3.95;1.15;;;;;;;;;;6191041;23;20009;-85
2023/11/04 16:22:54;;;;;;;2.15;0.10;;;;;;;;;;6190785;23;20016;-84
2023/11/04 16:25:20;;;;;;;0.10;0.03;;;;;;;;;;6191261;23;20013;-83
2023/11/04 16:27:46;;;;;;;0.10;0.10;;;;;;;;;;6216815;23;20797;-84
2023/11/04 16:30:12;;;;;;;0.90;0.20;;;;;;;;;;6215931;23;20072;-85
2023/11/04 16:32:38;;;;;;;0.68;0.68;;;;;;;;;;6190192;23;20039;-84
2023/11/04 16:35:05;;;;;;;2.60;0.38;;;;;;;;;;6190636;23;20013;-83
2023/11/04 16:37:31;;;;;;;3.17;0.77;;;;;;;;;;6189486;23;20004;-84
2023/11/04 16:40:00;;;;;;;0.08;0.08;;;;;;;;;;6190009;23;20536;-84
2023/11/04 16:42:26;;;;;;;0.55;0.20;;;;;;;;;;6188903;23;20325;-86
2023/11/04 16:44:52;;;;;;;3.15;0.90;;;;;;;;;;6190264;23;20051;-85
2023/11/04 16:47:19;;;;;;;6.28;1.15;;;;;;;;;;6216254;23;20000;-85
2023/11/04 16:49:46;;;;;;;1.67;0.60;;;;;;;;;;6217410;23;20040;-85
2023/11/04 16:52:12;;;;;;;3.47;0.85;;;;;;;;;;6190356;23;20009;-87
2023/11/04 17:03:51;;;;;;;1.05;0.30;;;;;;;;;;6245359;23;20019;-86
2023/11/04 17:06:17;;;;;;;3.45;0.88;;;;;;;;;;6243071;23;20008;-85
2023/11/04 17:08:43;;;;;;;1.20;0.80;;;;;;;;;;6244595;23;20008;-85
2023/11/04 17:11:39;;;;;;;2.08;0.85;;;;;;;;;;6243211;23;20323;-84
2023/11/04 17:14:05;;;;;;;1.00;0.50;;;;;;;;;;6243731;23;20020;-86
2023/11/04 17:19:25;;;;;;;1.45;0.60;;;;;;;;;;6245359;23;20112;-86
2023/11/04 17:21:53;;;;;;;1.73;0.40;;;;;;;;;;6243454;23;20016;-86
2023/11/04 17:24:19;;;;;;;1.85;0.38;;;;;;;;;;6244509;23;20071;-89
2023/11/04 17:26:48;;;;;;;0.75;0.55;;;;;;;;;;6246226;23;20038;-89
2023/11/04 17:29:14;;;;;;;0.43;0.20;;;;;;;;;;6245604;23;20023;-86
2023/11/04 17:31:40;;;;;;;0.35;0.32;;;;;;;;;;6245788;23;20348;-87
2023/11/04 17:34:06;;;;;;;0.38;0.30;;;;;;;;;;6245685;23;20012;-86
2023/11/04 17:36:32;;;;;;;0.40;0.20;;;;;;;;;;6247310;23;20003;-86
2023/11/04 17:38:58;;;;;;;0.65;0.45;;;;;;;;;;6248070;23;20004;-87
2023/11/04 17:41:24;;;;;;;0.60;0.20;;;;;;;;;;6247307;23;20329;-88
2023/11/04 17:43:51;;;;;;;0.75;0.45;;;;;;;;;;6246746;23;20012;-87
2023/11/04 17:46:17;;;;;;;2.78;0.30;;;;;;;;;;6247124;23;20004;-87
2023/11/04 17:48:43;;;;;;;1.20;0.35;;;;;;;;;;6246504;23;20020;-86
2023/11/04 17:51:23;;;;;;;0.57;0.47;;;;;;;;;;6247587;23;20004;-90
2023/11/04 17:53:49;;;;;;;0.70;0.40;;;;;;;;;;6242193;23;20012;-90
2023/11/04 17:56:20;;;;;;;2.22;0.47;;;;;;;;;;6242753;23;20107;-86
2023/11/04 17:58:48;;;;;;;0.37;0.17;;;;;;;;;;6242894;23;20434;-87
2023/11/04 18:04:12;;;;;;;1.05;0.40;;;;;;;;;;6242555;23;20095;-88
2023/11/04 18:06:54;;;;;;;3.03;1.02;;;;;;;;;;6243138;23;20009;-89
2023/11/04 18:11:55;;;;;;;2.38;0.88;;;;;;;;;;6210421;22;20393;-86
2023/11/04 18:14:21;;;;;;;1.13;0.77;;;;;;;;;;6184491;23;20009;-87
2023/11/04 18:16:48;;;;;;;1.02;0.57;;;;;;;;;;6184536;23;20096;-89
2023/11/04 18:19:14;;;;;;;6.68;2.72;;;;;;;;;;6182708;23;20005;-90
2023/11/04 18:25:17;;;;;;;4.40;2.17;;;;;;;;;;6049667;23;20446;-88
2023/11/04 18:27:43;;;;;;;12.77;4.47;;;;;;;;;;6065674;23;20011;-86
2023/11/04 18:30:10;;;;;;;3.33;0.65;;;;;;;;;;6164294;23;20428;-88
2023/11/04 18:32:36;;;;;;;2.15;0.85;;;;;;;;;;6185200;23;20035;-91
2023/11/04 18:35:03;;;;;;;4.70;0.93;;;;;;;;;;6184958;23;20477;-91
2023/11/04 18:37:29;;;;;;;2.10;0.77;;;;;;;;;;6183252;23;20036;-90
2023/11/04 18:39:55;;;;;;;2.92;1.40;;;;;;;;;;6183728;23;20005;-85
2023/11/04 18:42:21;;;;;;;1.35;0.85;;;;;;;;;;6185051;23;20013;-87
2023/11/04 18:45:08;;;;;;;1.40;0.70;;;;;;;;;;6185699;23;20024;-90
2023/11/04 18:47:34;;;;;;;0.88;0.43;;;;;;;;;;6185683;23;20100;-90
2023/11/04 18:50:16;;;;;;;2.35;1.02;;;;;;;;;;6184835;23;20047;-87
2023/11/04 18:53:11;;;;;;;4.73;1.13;;;;;;;;;;6185836;23;20033;-90
2023/11/04 18:55:41;;;;;;;1.38;0.73;;;;;;;;;;6125421;23;20270;-92
2023/11/04 18:58:07;;;;;;;0.20;0.10;;;;;;;;;;6122593;23;20100;-83
2023/11/04 19:00:33;;;;;;;0.80;0.30;;;;;;;;;;6122288;23;20370;-87
2023/11/04 19:02:59;;;;;;;1.05;0.45;;;;;;;;;;6122636;23;20021;-87
2023/11/04 19:05:25;;;;;;;0.82;0.10;;;;;;;;;;6120833;23;20018;-86
2023/11/04 19:07:51;;;;;;;1.23;0.22;;;;;;;;;;6121903;23;20459;-86
2023/11/04 19:10:17;;;;;;;0.40;0.10;;;;;;;;;;6123174;23;20093;-86
2023/11/04 19:12:44;;;;;;;0.00;0.00;;;;;;;;;;6106980;23;20030;-87
2023/11/04 19:15:11;;;;;;;0.10;0.00;;;;;;;;;;6070420;23;20021;-85
2023/11/04 19:17:37;;;;;;;0.35;0.13;;;;;;;;;;6067621;23;20025;-85
2023/11/04 19:20:10;;;;;;;0.28;0.22;;;;;;;;;;6107348;23;20013;-88
2023/11/04 19:22:36;;;;;;;0.20;0.05;;;;;;;;;;6161071;23;20040;-86
2023/11/04 19:25:05;;;;;;;0.15;0.15;;;;;;;;;;6161333;23;20009;-86
2023/11/04 19:27:40;;;;;;;0.47;0.28;;;;;;;;;;6160558;23;20092;-90
2023/11/04 19:38:52;;;;;;;;;;;;;;;;;;;;;
2023/11/04 19:44:05;;;;;;;0.50;0.20;;;;;;;;;;6248355;22;20024;-91
2023/11/04 20:10:33;;;;;;;1.25;0.10;;;;;;;;;;6223156;22;20389;-89
2023/11/04 20:13:07;;;;;;;2.00;0.52;;;;;;;;;;6248309;23;20015;-89
2023/11/04 20:16:03;;;;;;;;;;;;;;;;;;;;;
2023/11/04 20:19:14;;;;;;;5.80;1.65;;;;;;;;;;6215408;23;20088;-88
2023/11/04 20:22:05;;;;;;;1.58;0.90;;;;;;;;;;6215431;23;20372;-90
2023/11/04 20:24:35;;;;;;;18.90;6.63;;;;;;;;;;6213410;23;20087;-89
2023/11/04 20:27:04;;;;;;;0.47;0.30;;;;;;;;;;6215451;23;20032;-89
2023/11/04 20:29:43;;;;;;;1.08;0.20;;;;;;;;;;6215470;23;20131;-89
2023/11/04 20:32:13;;;;;;;0.63;0.10;;;;;;;;;;6215653;23;20163;-89
2023/11/04 20:37:57;;;;;;;;;;;;;;;;;;;;;
2023/11/04 20:53:03;;;;;;;0.55;0.25;;;;;;;;;;6246155;23;20018;-88
2023/11/04 20:55:42;;;;;;;;;;;;;;;;;;;;;
2023/11/04 20:58:18;;;;;;;0.65;0.10;;;;;;;;;;6246204;23;20075;-87
2023/11/04 21:00:47;;;;;;;0.38;0.15;;;;;;;;;;6211486;23;20023;-88
2023/11/04 21:03:20;;;;;;;0.88;0.50;;;;;;;;;;6211234;23;20091;-87
2023/11/04 21:05:52;;;;;;;0.10;0.08;;;;;;;;;;6214131;23;20104;-88
2023/11/04 21:08:50;;;;;;;0.08;0.08;;;;;;;;;;6214381;23;20013;-88
2023/11/04 21:21:09;;;;;;;0.08;0.03;;;;;;;;;;6210343;22;20032;-90
2023/11/04 21:23:46;;;;;;;2.10;0.40;;;;;;;;;;6155031;23;20017;-89
2023/11/04 21:32:07;;;;;;;;;;;;;;;;;;6096528;23;20018;-88
2023/11/04 21:40:32;;;;;;;0.55;0.05;;;;;;;;;;6154063;23;20374;-90
2023/11/04 21:43:00;;;;;;;0.15;0.10;;;;;;;;;;6153989;23;20093;-89
2023/11/04 21:45:26;;;;;;;0.20;0.10;;;;;;;;;;6154011;23;20012;-88
2023/11/04 21:47:56;;;;;;;0.00;0.00;;;;;;;;;;6171137;23;20100;-89
2023/11/04 21:50:53;;;;;;;;;;;;;;;;;;;;;